createdAt,value
2019-01-03T00:00:15.917Z,6.87
2019-01-03T00:03:03.736Z,5.67
2019-01-03T00:06:03.433Z,4.10
2019-01-03T00:08:48.304Z,7.87
2019-01-03T00:11:35.578Z,3.22
2019-01-03T00:14:21.583Z,2.52
2019-01-03T00:17:20.726Z,3.17
2019-01-03T00:20:23.052Z,3.22
2019-01-03T00:23:10.415Z,7.83
2019-01-03T00:25:57.678Z,2.70
2019-01-03T00:28:47.893Z,4.22
2019-01-03T00:31:33.860Z,6.30
2019-01-03T00:34:22.519Z,7.37
2019-01-03T00:37:08.678Z,6.08
2019-01-03T00:39:53.640Z,7.72
2019-01-03T00:42:58.995Z,5.80
2019-01-03T00:46:04.449Z,8.93
2019-01-03T00:49:09.955Z,7.72
2019-01-03T00:51:49.109Z,1.92
2019-01-03T00:54:35.690Z,4.30
2019-01-03T00:57:35.326Z,3.72
2019-01-03T01:00:23.779Z,4.35
2019-01-03T01:03:14.071Z,4.03
2019-01-03T01:06:07.530Z,3.17
2019-01-03T01:09:07.471Z,3.20
2019-01-03T01:11:55.084Z,4.50
2019-01-03T01:14:41.589Z,5.65
2019-01-03T01:17:37.904Z,4.03
2019-01-03T01:20:24.432Z,12.03
2019-01-03T01:23:20.979Z,3.27
2019-01-03T01:26:00.004Z,9.65
2019-01-03T01:28:49.279Z,6.65
2019-01-03T01:31:33.637Z,6.42
2019-01-03T01:34:19.630Z,7.30
2019-01-03T01:37:25.314Z,7.15
2019-01-03T01:40:09.381Z,6.83
2019-01-03T01:42:59.622Z,6.12
2019-01-03T01:46:02.159Z,5.17
2019-01-03T01:48:56.335Z,6.67
2019-01-03T01:51:51.209Z,9.53
2019-01-03T01:54:47.994Z,7.12
2019-01-03T01:57:38.435Z,9.00
2019-01-03T02:00:41.778Z,5.20
2019-01-03T02:03:45.429Z,6.45
2019-01-03T02:06:39.626Z,9.18
2019-01-03T02:09:20.895Z,5.90
2019-01-03T02:12:07.404Z,6.70
2019-01-03T02:15:01.364Z,4.22
2019-01-03T02:17:48.653Z,9.58
2019-01-03T02:20:34.692Z,6.97
2019-01-03T02:23:16.544Z,6.72
2019-01-03T02:26:13.494Z,10.15
2019-01-03T02:28:59.644Z,7.92
2019-01-03T02:31:45.939Z,8.90
2019-01-03T02:34:36.383Z,5.35
2019-01-03T02:37:23.937Z,2.77
2019-01-03T02:40:11.163Z,6.25
2019-01-03T02:42:58.418Z,7.17
2019-01-03T02:45:45.602Z,4.67
2019-01-03T02:48:39.042Z,6.40
2019-01-03T02:51:25.116Z,9.00
2019-01-03T02:54:30.317Z,6.70
2019-01-03T02:57:16.422Z,8.18
2019-01-03T03:00:11.315Z,16.17
2019-01-03T03:03:01.399Z,2.80
2019-01-03T03:05:59.125Z,4.20
2019-01-03T03:08:52.503Z,6.30
2019-01-03T03:11:42.696Z,3.58
2019-01-03T03:14:48.336Z,3.98
2019-01-03T03:17:47.530Z,11.55
2019-01-03T03:20:34.778Z,2.37
2019-01-03T03:23:22.260Z,6.95
2019-01-03T03:26:24.578Z,8.88
2019-01-03T03:29:15.283Z,14.78
2019-01-03T03:32:01.193Z,12.37
2019-01-03T03:34:47.542Z,8.18
2019-01-03T03:37:50.093Z,4.08
2019-01-03T03:40:46.503Z,2.05
2019-01-03T03:43:32.556Z,3.90
2019-01-03T03:46:11.068Z,6.35
2019-01-03T03:48:58.440Z,8.05
2019-01-03T03:51:51.657Z,6.05
2019-01-03T03:54:37.661Z,3.98
2019-01-03T03:57:42.859Z,5.53
2019-01-03T04:00:48.428Z,10.95
2019-01-03T04:03:38.629Z,6.00
2019-01-03T04:06:30.037Z,6.45
2019-01-03T04:09:14.079Z,12.98
2019-01-03T04:12:08.853Z,5.67
2019-01-03T04:15:06.916Z,9.75
2019-01-03T04:17:58.395Z,9.85
2019-01-03T04:20:45.165Z,15.32
2019-01-03T04:23:36.684Z,14.85
2019-01-03T04:26:36.393Z,22.55
2019-01-03T04:29:22.791Z,7.65
2019-01-03T04:32:09.894Z,6.78
2019-01-03T04:35:03.910Z,14.20
2019-01-03T04:37:57.978Z,8.00
2019-01-03T04:40:44.596Z,10.38
2019-01-03T04:43:32.517Z,19.40
2019-01-03T04:46:20.621Z,10.90
2019-01-03T04:49:09.033Z,10.10
2019-01-03T04:52:00.146Z,11.18
2019-01-03T04:54:48.501Z,6.42
2019-01-03T04:57:35.035Z,7.35
2019-01-03T05:00:22.113Z,8.38
2019-01-03T05:03:09.213Z,8.43
2019-01-03T05:05:57.533Z,4.15
2019-01-03T05:08:54.764Z,9.83
2019-01-03T05:11:46.494Z,4.95
2019-01-03T05:14:46.718Z,7.17
2019-01-03T05:20:25.968Z,10.68
2019-01-03T05:23:30.099Z,7.12
2019-01-03T05:26:21.713Z,2.40
2019-01-03T05:29:08.822Z,4.42
2019-01-03T05:31:55.339Z,7.80
2019-01-03T05:34:58.837Z,13.60
2019-01-03T05:37:49.880Z,5.08
2019-01-03T05:40:38.328Z,2.15
2019-01-03T05:43:31.831Z,4.90
2019-01-03T05:46:28.466Z,6.42
2019-01-03T05:49:14.575Z,2.87
2019-01-03T05:52:11.132Z,8.40
2019-01-03T05:54:58.399Z,9.63
2019-01-03T05:57:49.271Z,7.90
2019-01-03T06:00:36.430Z,9.90
2019-01-03T06:03:41.729Z,4.25
2019-01-03T06:06:39.435Z,8.05
2019-01-03T06:09:33.621Z,10.93
2019-01-03T06:12:15.108Z,6.45
2019-01-03T06:15:09.394Z,8.78
2019-01-03T06:18:06.738Z,10.43
2019-01-03T06:20:53.162Z,10.63
2019-01-03T06:23:33.411Z,6.92
2019-01-03T06:26:36.504Z,6.62
2019-01-03T06:29:33.760Z,9.28
2019-01-03T06:32:20.975Z,13.40
2019-01-03T06:35:21.618Z,9.90
2019-01-03T06:38:07.917Z,10.75
2019-01-03T06:40:56.455Z,23.75
2019-01-03T06:46:36.864Z,13.00
2019-01-03T06:49:39.889Z,9.90
2019-01-03T06:52:34.807Z,13.70
2019-01-03T06:55:21.858Z,10.50
2019-01-03T06:58:15.670Z,8.63
2019-01-03T07:01:09.158Z,8.18
2019-01-03T07:03:59.290Z,14.40
2019-01-03T07:06:58.466Z,25.60
2019-01-03T07:09:46.024Z,6.45
2019-01-03T07:12:42.458Z,9.58
2019-01-03T07:15:42.082Z,5.50
2019-01-03T07:18:28.009Z,10.78
2019-01-03T07:21:27.126Z,6.85
2019-01-03T07:24:09.323Z,9.73
2019-01-03T07:26:55.984Z,16.97
2019-01-03T07:29:43.551Z,8.85
2019-01-03T07:32:32.088Z,7.35
2019-01-03T07:35:19.682Z,18.80
2019-01-03T07:38:07.185Z,9.65
2019-01-03T07:40:54.857Z,13.40
2019-01-03T07:43:45.229Z,10.85
2019-01-03T07:46:28.260Z,31.30
2019-01-03T07:49:15.899Z,11.70
2019-01-03T07:52:03.596Z,8.10
2019-01-03T07:54:52.422Z,10.88
2019-01-03T07:57:55.817Z,18.67
2019-01-03T08:00:46.319Z,20.50
2019-01-03T08:03:30.108Z,8.25
2019-01-03T08:06:23.930Z,14.78
2019-01-03T08:09:24.505Z,17.77
2019-01-03T08:12:12.162Z,9.98
2019-01-03T08:15:05.536Z,9.85
2019-01-03T08:17:51.660Z,8.45
2019-01-03T08:20:37.649Z,10.35
2019-01-03T08:23:28.555Z,10.65
2019-01-03T08:26:14.799Z,12.18
2019-01-03T08:29:01.017Z,17.65
2019-01-03T08:31:48.901Z,6.20
2019-01-03T08:34:36.280Z,10.08
2019-01-03T08:37:44.722Z,6.72
2019-01-03T08:40:38.422Z,6.58
2019-01-03T08:43:27.134Z,11.40
2019-01-03T08:46:31.804Z,20.48
2019-01-03T08:49:21.879Z,9.13
2019-01-03T08:52:09.712Z,9.15
2019-01-03T08:54:53.728Z,12.37
2019-01-03T08:57:39.610Z,6.45
2019-01-03T09:00:29.738Z,15.63
2019-01-03T09:03:26.313Z,13.48
2019-01-03T09:06:22.859Z,18.45
2019-01-03T09:09:28.714Z,12.68
2019-01-03T09:12:18.566Z,14.50
2019-01-03T09:15:04.520Z,6.62
2019-01-03T09:17:55.206Z,9.50
2019-01-03T09:20:54.796Z,11.30
2019-01-03T09:23:54.170Z,10.43
2019-01-03T09:26:40.047Z,19.50
2019-01-03T09:29:38.780Z,10.68
2019-01-03T09:32:38.147Z,9.05
2019-01-03T09:35:44.064Z,10.45
2019-01-03T09:38:34.539Z,16.48
2019-01-03T09:41:28.218Z,15.20
2019-01-03T09:44:08.646Z,10.43
2019-01-03T09:46:36.867Z,24.45
2019-01-03T09:49:05.847Z,74.10
2019-01-03T09:51:34.023Z,49.58
2019-01-03T09:54:02.635Z,93.42
2019-01-03T09:56:31.066Z,56.57
2019-01-03T09:58:59.477Z,40.45
2019-01-03T10:01:27.677Z,41.33
2019-01-03T10:03:56.282Z,42.15
2019-01-03T10:06:24.553Z,60.17
2019-01-03T10:08:53.100Z,33.53
2019-01-03T10:11:21.328Z,43.55
2019-01-03T10:13:49.597Z,34.90
2019-01-03T10:16:17.953Z,36.03
2019-01-03T10:18:45.928Z,32.57
2019-01-03T10:21:14.082Z,35.17
2019-01-03T10:23:42.246Z,40.30
2019-01-03T10:26:10.419Z,32.57
2019-01-03T10:28:38.519Z,19.83
2019-01-03T10:31:06.830Z,16.43
2019-01-03T10:33:35.044Z,14.30
2019-01-03T10:36:03.058Z,21.00
2019-01-03T10:38:31.313Z,32.33
2019-01-03T10:40:59.386Z,34.77
2019-01-03T10:43:27.767Z,20.07
2019-01-03T10:45:55.966Z,21.83
2019-01-03T10:48:24.156Z,13.00
2019-01-03T10:50:53.080Z,20.07
2019-01-03T10:53:21.381Z,11.00
2019-01-03T10:55:49.735Z,6.80
2019-01-03T10:58:17.982Z,9.40
2019-01-03T11:00:45.994Z,12.80
2019-01-03T11:03:14.074Z,21.67
2019-01-03T11:05:42.435Z,10.93
2019-01-03T11:08:10.925Z,14.03
2019-01-03T11:10:38.987Z,10.33
2019-01-03T11:13:07.288Z,8.93
2019-01-03T11:15:35.505Z,12.20
2019-01-03T11:18:03.854Z,13.43
2019-01-03T11:20:32.250Z,11.40
2019-01-03T11:23:00.406Z,15.37
2019-01-03T11:25:28.895Z,12.23
2019-01-03T11:27:57.118Z,9.70
2019-01-03T11:30:25.818Z,20.13
2019-01-03T11:32:54.402Z,13.67
2019-01-03T11:35:22.802Z,12.10
2019-01-03T11:37:51.144Z,17.53
2019-01-03T11:40:19.321Z,9.10
2019-01-03T11:42:47.608Z,13.70
2019-01-03T11:45:15.796Z,10.27
2019-01-03T11:47:44.980Z,11.60
2019-01-03T11:50:13.175Z,10.20
2019-01-03T11:52:41.353Z,13.27
2019-01-03T11:55:13.650Z,10.00
2019-01-03T11:57:41.824Z,12.73
2019-01-03T12:00:10.182Z,11.53
2019-01-03T12:02:38.673Z,12.87
2019-01-03T12:05:07.539Z,8.93
2019-01-03T12:07:35.759Z,15.10
2019-01-03T12:10:03.977Z,10.70
2019-01-03T12:12:32.499Z,9.80
2019-01-03T12:15:01.017Z,7.87
2019-01-03T12:17:29.595Z,9.53
2019-01-03T12:19:57.696Z,13.53
2019-01-03T12:22:25.778Z,9.80
2019-01-03T12:24:54.060Z,8.63
2019-01-03T12:27:22.286Z,13.23
2019-01-03T12:29:50.737Z,5.80
2019-01-03T12:32:19.053Z,4.80
2019-01-03T12:34:47.717Z,10.03
2019-01-03T12:37:16.195Z,14.17
2019-01-03T12:39:44.384Z,8.10
2019-01-03T12:42:12.627Z,13.57
2019-01-03T12:44:40.737Z,12.80
2019-01-03T12:47:08.839Z,19.77
2019-01-03T12:49:36.952Z,9.30
2019-01-03T12:52:14.226Z,10.13
2019-01-03T12:54:43.137Z,10.80
2019-01-03T12:57:11.362Z,6.57
2019-01-03T12:59:39.492Z,6.33
2019-01-03T13:02:07.620Z,10.07
2019-01-03T13:04:35.749Z,13.07
2019-01-03T13:07:03.751Z,6.30
2019-01-03T13:09:31.824Z,7.60
2019-01-03T13:11:59.892Z,6.60
2019-01-03T13:14:28.421Z,6.00
2019-01-03T13:16:56.819Z,9.40
2019-01-03T13:19:24.912Z,9.77
2019-01-03T13:21:53.129Z,10.77
2019-01-03T13:24:23.895Z,8.60
2019-01-03T13:26:52.260Z,8.10
2019-01-03T13:29:20.410Z,17.63
2019-01-03T13:31:49.029Z,8.37
2019-01-03T13:34:17.369Z,13.70
2019-01-03T13:36:46.144Z,10.30
2019-01-03T13:39:14.395Z,13.23
2019-01-03T13:41:42.497Z,11.50
2019-01-03T13:44:10.825Z,8.60
2019-01-03T13:46:38.826Z,6.93
2019-01-03T13:49:07.112Z,11.10
2019-01-03T13:51:34.910Z,8.33
2019-01-03T13:54:02.954Z,17.37
2019-01-03T13:56:31.247Z,17.23
2019-01-03T13:58:59.599Z,14.33
2019-01-03T14:01:28.261Z,13.83
2019-01-03T14:03:56.253Z,11.97
2019-01-03T14:06:24.362Z,11.33
2019-01-03T14:08:52.338Z,10.30
2019-01-03T14:11:23.161Z,9.40
2019-01-03T14:13:51.381Z,7.20
2019-01-03T14:16:19.865Z,10.70
2019-01-03T14:18:48.825Z,6.53
2019-01-03T14:21:18.387Z,10.43
2019-01-03T14:23:47.127Z,9.87
2019-01-03T14:26:16.465Z,12.60
2019-01-03T14:28:46.221Z,9.50
2019-01-03T14:31:15.073Z,20.20
2019-01-03T14:33:43.893Z,7.40
2019-01-03T14:36:13.233Z,12.17
2019-01-03T14:38:42.106Z,14.10
2019-01-03T14:41:11.019Z,13.57
2019-01-03T14:43:39.849Z,15.77
2019-01-03T14:46:13.067Z,10.30
2019-01-03T14:48:42.469Z,7.90
2019-01-03T14:51:11.235Z,13.23
2019-01-03T14:53:40.288Z,12.60
2019-01-03T14:56:10.017Z,17.63
2019-01-03T14:58:39.271Z,22.40
2019-01-03T15:01:08.095Z,14.50
2019-01-03T15:03:36.828Z,17.13
2019-01-03T15:06:05.943Z,19.70
2019-01-03T15:08:35.132Z,19.03
2019-01-03T15:11:03.714Z,17.10
2019-01-03T15:13:32.455Z,13.40
2019-01-03T15:16:02.226Z,15.13
2019-01-03T15:18:31.123Z,18.27
2019-01-03T15:20:59.795Z,9.50
2019-01-03T15:23:28.779Z,19.70
2019-01-03T15:26:00.310Z,10.30
2019-01-03T15:28:29.641Z,11.80
2019-01-03T15:31:04.077Z,19.63
2019-01-03T15:33:34.040Z,16.50
2019-01-03T15:36:03.307Z,24.00
2019-01-03T15:38:33.864Z,12.37
2019-01-03T15:41:03.077Z,13.68
2019-01-03T15:43:32.022Z,16.20
2019-01-03T15:46:00.112Z,19.33
2019-01-03T15:48:28.305Z,19.80
2019-01-03T15:50:56.507Z,16.43
2019-01-03T15:53:25.009Z,20.87
2019-01-03T15:55:53.386Z,24.80
2019-01-03T15:58:22.015Z,18.97
2019-01-03T16:00:50.472Z,16.80
2019-01-03T16:03:19.106Z,18.65
2019-01-03T16:05:47.346Z,15.40
2019-01-03T16:08:15.597Z,19.57
2019-01-03T16:10:43.865Z,15.07
2019-01-03T16:13:13.182Z,17.42
2019-01-03T16:15:41.416Z,35.65
2019-01-03T16:18:09.705Z,49.37
2019-01-03T16:20:37.929Z,26.57
2019-01-03T16:23:06.669Z,23.67
2019-01-03T16:25:47.380Z,21.80
2019-01-03T16:28:15.951Z,17.92
2019-01-03T16:30:44.549Z,25.47
2019-01-03T16:33:12.752Z,33.55
2019-01-03T16:35:53.283Z,17.30
2019-01-03T16:38:34.921Z,21.33
2019-01-03T16:41:03.146Z,16.57
2019-01-03T16:43:31.653Z,24.40
2019-01-03T16:46:00.259Z,29.80
2019-01-03T16:48:28.812Z,24.17
2019-01-03T16:50:57.156Z,30.23
2019-01-03T16:53:25.427Z,18.70
2019-01-03T16:55:54.720Z,25.83
2019-01-03T16:58:22.999Z,23.23
2019-01-03T17:00:51.171Z,21.47
2019-01-03T17:03:19.472Z,30.17
2019-01-03T17:05:47.658Z,28.80
2019-01-03T17:08:15.844Z,22.57
2019-01-03T17:10:44.412Z,25.23
2019-01-03T17:13:12.702Z,26.77
2019-01-03T17:15:41.006Z,36.70
2019-01-03T17:18:09.042Z,29.47
2019-01-03T17:20:37.306Z,34.15
2019-01-03T17:23:05.459Z,29.47
2019-01-03T17:25:33.466Z,23.70
2019-01-03T17:28:01.632Z,28.57
2019-01-03T17:30:29.781Z,27.30
2019-01-03T17:32:58.022Z,43.60
2019-01-03T17:35:26.020Z,26.85
2019-01-03T17:37:55.507Z,31.20
2019-01-03T17:40:24.113Z,32.10
2019-01-03T17:42:52.492Z,41.27
2019-01-03T17:45:20.562Z,55.43
2019-01-03T17:47:48.661Z,107.90
2019-01-03T17:50:17.203Z,27.27
2019-01-03T17:52:45.348Z,27.77
2019-01-03T17:55:13.403Z,40.27
2019-01-03T17:57:41.583Z,32.97
2019-01-03T18:00:16.441Z,28.13
2019-01-03T18:02:44.877Z,36.63
2019-01-03T18:05:13.130Z,27.50
2019-01-03T18:07:41.855Z,28.40
2019-01-03T18:10:11.445Z,36.33
2019-01-03T18:12:39.803Z,41.67
2019-01-03T18:15:08.179Z,45.07
2019-01-03T18:17:36.576Z,37.33
2019-01-03T18:20:06.475Z,35.03
2019-01-03T18:22:34.895Z,37.43
2019-01-03T18:25:03.659Z,40.83
2019-01-03T18:27:32.103Z,42.73
2019-01-03T18:30:00.357Z,41.23
2019-01-03T18:32:28.556Z,49.73
2019-01-03T18:34:56.458Z,30.03
2019-01-03T18:37:24.506Z,38.50
2019-01-03T18:39:52.325Z,53.07
2019-01-03T18:42:20.714Z,52.10
2019-01-03T18:44:48.622Z,38.70
2019-01-03T18:47:16.674Z,47.17
2019-01-03T18:49:45.027Z,36.67
2019-01-03T18:52:12.846Z,39.37
2019-01-03T18:54:40.754Z,39.10
2019-01-03T18:57:08.632Z,50.00
2019-01-03T18:59:36.845Z,34.83
2019-01-03T19:02:05.205Z,43.73
2019-01-03T19:04:33.369Z,44.90
2019-01-03T19:07:02.423Z,34.47
2019-01-03T19:09:30.736Z,32.47
2019-01-03T19:11:59.185Z,34.27
2019-01-03T19:14:27.457Z,37.13
2019-01-03T19:16:55.708Z,41.53
2019-01-03T19:19:23.908Z,37.10
2019-01-03T19:21:52.487Z,42.43
2019-01-03T19:24:21.386Z,41.13
2019-01-03T19:26:49.672Z,39.40
2019-01-03T19:29:17.834Z,43.20
2019-01-03T19:31:45.713Z,43.90
2019-01-03T19:34:13.698Z,41.43
2019-01-03T19:36:41.728Z,45.63
2019-01-03T19:39:09.782Z,38.53
2019-01-03T19:41:37.989Z,44.47
2019-01-03T19:44:06.174Z,55.30
2019-01-03T19:46:34.175Z,38.30
2019-01-03T19:49:02.497Z,41.53
2019-01-03T19:51:30.775Z,40.00
2019-01-03T19:53:58.931Z,41.83
2019-01-03T19:56:27.058Z,51.23
2019-01-03T19:58:55.645Z,56.73
2019-01-03T20:01:23.684Z,48.63
2019-01-03T20:03:51.872Z,45.27
2019-01-03T20:06:20.031Z,65.67
2019-01-03T20:08:48.379Z,47.23
2019-01-03T20:11:16.598Z,53.20
2019-01-03T20:13:44.978Z,57.80
2019-01-03T20:16:13.412Z,73.80
2019-01-03T20:18:41.682Z,65.23
2019-01-03T20:21:09.678Z,72.60
2019-01-03T20:23:37.883Z,56.77
2019-01-03T20:26:06.143Z,62.60
2019-01-03T20:28:34.407Z,41.80
2019-01-03T20:31:02.987Z,63.80
2019-01-03T20:33:31.231Z,59.53
2019-01-03T20:36:12.264Z,54.50
2019-01-03T20:38:49.353Z,59.43
2019-01-03T20:41:18.142Z,51.75
2019-01-03T20:43:46.573Z,51.93
2019-01-03T20:46:14.559Z,64.57
2019-01-03T20:48:42.417Z,53.33
2019-01-03T20:51:10.814Z,57.90
2019-01-03T20:53:39.296Z,65.10
2019-01-03T20:56:07.875Z,58.90
2019-01-03T20:58:36.143Z,333.57
2019-01-03T21:01:04.386Z,95.50
2019-01-03T21:03:32.718Z,57.50
2019-01-03T21:06:01.191Z,64.23
2019-01-03T21:08:29.624Z,65.13
2019-01-03T21:10:58.109Z,60.53
2019-01-03T21:13:26.619Z,59.43
2019-01-03T21:15:55.020Z,59.27
2019-01-03T21:18:23.215Z,64.17
2019-01-03T21:20:52.160Z,59.27
2019-01-03T21:23:20.261Z,54.33
2019-01-03T21:25:48.334Z,57.73
2019-01-03T21:28:16.737Z,46.23
2019-01-03T21:30:45.212Z,47.57
2019-01-03T21:33:13.571Z,48.50
2019-01-03T21:35:42.107Z,46.50
2019-01-03T21:38:10.392Z,44.20
2019-01-03T21:40:38.668Z,45.90
2019-01-03T21:43:07.239Z,52.43
2019-01-03T21:45:35.441Z,36.57
2019-01-03T21:48:03.907Z,38.90
2019-01-03T21:50:32.990Z,43.00
2019-01-03T21:53:01.582Z,40.43
2019-01-03T21:55:30.459Z,40.77
2019-01-03T21:57:58.637Z,40.40
2019-01-03T22:00:27.223Z,37.13
2019-01-03T22:02:55.553Z,36.07
2019-01-03T22:05:23.764Z,36.00
2019-01-03T22:07:52.188Z,45.67
2019-01-03T22:10:20.795Z,40.07
2019-01-03T22:12:49.220Z,38.93
2019-01-03T22:15:18.528Z,44.27
2019-01-03T22:17:46.791Z,36.53
2019-01-03T22:20:15.328Z,39.40
2019-01-03T22:22:43.478Z,35.90
2019-01-03T22:25:12.248Z,50.10
2019-01-03T22:27:40.736Z,39.27
2019-01-03T22:30:10.515Z,50.73
2019-01-03T22:32:39.099Z,49.13
2019-01-03T22:35:07.864Z,44.10
2019-01-03T22:37:36.337Z,40.90
2019-01-03T22:40:05.358Z,40.27
2019-01-03T22:42:33.619Z,40.80
2019-01-03T22:45:01.806Z,38.50
2019-01-03T22:47:30.033Z,40.50
2019-01-03T22:49:58.451Z,42.83
2019-01-03T22:52:27.083Z,42.00
2019-01-03T22:54:57.175Z,44.33
2019-01-03T22:57:25.345Z,45.40
2019-01-03T22:59:53.191Z,49.17
2019-01-03T23:02:20.951Z,46.10
2019-01-03T23:04:49.665Z,48.33
2019-01-03T23:07:18.027Z,37.83
2019-01-03T23:09:46.603Z,43.93
2019-01-03T23:12:14.831Z,42.50
2019-01-03T23:14:42.981Z,44.47
2019-01-03T23:17:23.611Z,41.83
2019-01-03T23:19:51.588Z,47.00
2019-01-03T23:22:19.412Z,60.00
2019-01-03T23:24:47.961Z,35.00
2019-01-03T23:27:16.013Z,43.23
2019-01-03T23:29:44.571Z,49.10
2019-01-03T23:32:12.640Z,51.37
2019-01-03T23:34:41.251Z,56.27
2019-01-03T23:37:23.779Z,53.80
2019-01-03T23:39:52.047Z,53.60
2019-01-03T23:42:33.511Z,63.17
2019-01-03T23:45:22.183Z,61.47
2019-01-03T23:47:58.345Z,47.93
2019-01-03T23:50:31.383Z,60.57
2019-01-03T23:53:00.022Z,70.87
2019-01-03T23:55:31.800Z,59.80
2019-01-03T23:57:59.928Z,59.77
